createdAt,value
2018-09-30T00:00:21.798Z,21.98
2018-09-30T00:02:48.526Z,21.96
2018-09-30T00:05:15.203Z,21.93
2018-09-30T00:07:41.861Z,21.87
2018-09-30T00:10:08.536Z,21.92
2018-09-30T00:12:36.334Z,21.91
2018-09-30T00:15:03.820Z,21.93
2018-09-30T00:17:30.482Z,21.94
2018-09-30T00:19:57.145Z,21.87
2018-09-30T00:22:24.686Z,21.90
2018-09-30T00:24:56.918Z,21.91
2018-09-30T00:27:23.589Z,21.91
2018-09-30T00:29:50.261Z,21.93
2018-09-30T00:32:16.919Z,21.93
2018-09-30T00:34:43.577Z,21.93
2018-09-30T00:37:10.236Z,21.83
2018-09-30T00:39:36.898Z,21.87
2018-09-30T00:42:03.549Z,21.91
2018-09-30T00:44:30.217Z,21.86
2018-09-30T00:46:57.842Z,21.81
2018-09-30T00:49:25.481Z,21.82
2018-09-30T00:51:53.025Z,21.82
2018-09-30T00:54:19.726Z,21.83
2018-09-30T00:56:47.288Z,21.86
2018-09-30T00:59:14.009Z,21.91
2018-09-30T01:12:37.037Z,21.61
2018-09-30T01:15:03.747Z,21.74
2018-09-30T01:17:30.407Z,21.78
2018-09-30T01:19:58.078Z,21.74
2018-09-30T01:22:25.610Z,21.79
2018-09-30T01:24:52.261Z,21.76
2018-09-30T01:27:18.962Z,21.76
2018-09-30T01:29:45.625Z,21.78
2018-09-30T01:32:12.332Z,21.82
2018-09-30T01:34:38.992Z,21.79
2018-09-30T01:37:06.702Z,21.71
2018-09-30T01:39:34.268Z,21.74
2018-09-30T01:42:01.908Z,21.74
2018-09-30T01:44:28.604Z,21.72
2018-09-30T01:46:55.317Z,21.75
2018-09-30T01:49:23.089Z,21.78
2018-09-30T01:51:55.428Z,21.73
2018-09-30T01:54:22.077Z,21.71
2018-09-30T01:56:49.554Z,21.79
2018-09-30T01:59:17.042Z,21.77
2018-09-30T02:01:44.676Z,21.76
2018-09-30T02:04:11.354Z,21.72
2018-09-30T02:06:38.070Z,21.69
2018-09-30T02:09:05.822Z,21.71
2018-09-30T02:11:33.501Z,21.70
2018-09-30T02:14:00.206Z,21.69
2018-09-30T02:16:26.861Z,21.72
2018-09-30T02:18:54.450Z,21.69
2018-09-30T02:21:21.105Z,21.73
2018-09-30T02:23:47.777Z,21.68
2018-09-30T02:26:15.397Z,21.74
2018-09-30T02:28:42.993Z,21.66
2018-09-30T02:31:10.504Z,21.71
2018-09-30T02:33:38.112Z,21.63
2018-09-30T02:36:06.317Z,21.63
2018-09-30T02:38:32.976Z,21.69
2018-09-30T02:41:00.476Z,21.68
2018-09-30T02:43:28.021Z,21.62
2018-09-30T02:45:55.682Z,21.64
2018-09-30T02:48:22.329Z,21.68
2018-09-30T02:50:49.017Z,21.65
2018-09-30T02:53:16.633Z,21.62
2018-09-30T02:55:43.298Z,21.64
2018-09-30T02:58:10.916Z,21.68
2018-09-30T03:00:38.513Z,21.58
2018-09-30T03:03:07.677Z,21.58
2018-09-30T03:05:36.571Z,21.63
2018-09-30T03:08:08.952Z,21.64
2018-09-30T03:10:36.413Z,21.62
2018-09-30T03:13:03.135Z,21.61
2018-09-30T03:15:30.613Z,21.61
2018-09-30T03:17:58.117Z,21.57
2018-09-30T03:20:26.809Z,21.64
2018-09-30T03:22:53.461Z,21.62
2018-09-30T03:25:20.145Z,21.61
2018-09-30T03:27:46.833Z,21.65
2018-09-30T03:30:13.506Z,21.56
2018-09-30T03:32:40.203Z,21.59
2018-09-30T03:35:07.689Z,21.55
2018-09-30T03:37:34.361Z,21.47
2018-09-30T03:40:01.862Z,21.45
2018-09-30T03:42:30.473Z,21.44
2018-09-30T03:44:57.133Z,21.50
2018-09-30T03:47:23.805Z,21.47
2018-09-30T03:49:50.471Z,21.50
2018-09-30T03:52:17.123Z,21.52
2018-09-30T03:54:43.781Z,21.53
2018-09-30T03:57:10.453Z,21.61
2018-09-30T03:59:37.162Z,21.56
2018-09-30T04:02:05.594Z,21.56
2018-09-30T04:04:32.309Z,21.60
2018-09-30T04:07:00.885Z,21.61
2018-09-30T04:09:29.553Z,21.62
2018-09-30T04:11:56.189Z,21.59
2018-09-30T04:14:22.850Z,21.59
2018-09-30T04:16:49.550Z,21.55
2018-09-30T04:19:16.210Z,21.55
2018-09-30T04:21:42.908Z,21.56
2018-09-30T04:24:10.385Z,21.59
2018-09-30T04:26:38.273Z,21.58
2018-09-30T04:29:05.797Z,21.62
2018-09-30T04:31:33.852Z,21.62
2018-09-30T04:34:01.826Z,21.65
2018-09-30T04:36:29.695Z,21.61
2018-09-30T04:38:56.506Z,21.61
2018-09-30T04:41:23.154Z,21.60
2018-09-30T04:43:49.812Z,21.53
2018-09-30T04:46:16.477Z,21.52
2018-09-30T04:48:43.179Z,21.53
2018-09-30T04:51:09.861Z,21.53
2018-09-30T04:53:36.646Z,21.61
2018-09-30T04:56:03.281Z,21.56
2018-09-30T04:58:30.888Z,21.59
2018-09-30T05:00:57.528Z,21.58
2018-09-30T05:03:24.198Z,21.48
2018-09-30T05:05:50.923Z,21.50
2018-09-30T05:08:17.547Z,21.51
2018-09-30T05:10:44.236Z,21.51
2018-09-30T05:13:11.756Z,21.48
2018-09-30T05:15:39.328Z,21.46
2018-09-30T05:18:06.957Z,21.46
2018-09-30T05:20:35.655Z,21.50
2018-09-30T05:23:03.252Z,21.47
2018-09-30T05:25:31.761Z,21.48
2018-09-30T05:27:59.988Z,21.48
2018-09-30T05:30:27.608Z,21.49
2018-09-30T05:32:54.286Z,21.54
2018-09-30T05:35:21.889Z,21.52
2018-09-30T05:37:48.540Z,21.50
2018-09-30T05:40:15.186Z,21.55
2018-09-30T05:42:42.935Z,21.45
2018-09-30T05:45:10.500Z,21.40
2018-09-30T05:47:37.599Z,21.48
2018-09-30T05:50:05.965Z,21.52
2018-09-30T05:52:32.704Z,21.53
2018-09-30T05:55:00.132Z,21.53
2018-09-30T06:00:05.687Z,21.48
2018-09-30T06:02:32.396Z,21.50
2018-09-30T06:05:00.609Z,21.56
2018-09-30T06:07:27.274Z,21.48
2018-09-30T06:09:54.854Z,21.43
2018-09-30T06:12:22.541Z,21.41
2018-09-30T06:14:50.157Z,21.42
2018-09-30T06:17:16.800Z,21.45
2018-09-30T06:19:44.501Z,21.54
2018-09-30T06:22:11.209Z,21.49
2018-09-30T06:24:37.912Z,21.52
2018-09-30T06:27:04.552Z,21.54
2018-09-30T06:29:31.197Z,21.56
2018-09-30T06:31:57.883Z,21.55
2018-09-30T06:34:24.532Z,21.53
2018-09-30T06:36:51.279Z,21.51
2018-09-30T06:39:17.939Z,21.52
2018-09-30T06:41:44.581Z,21.68
2018-09-30T06:44:11.229Z,21.34
2018-09-30T06:46:37.876Z,21.14
2018-09-30T06:49:04.556Z,21.20
2018-09-30T06:51:31.192Z,21.38
2018-09-30T06:53:57.880Z,21.42
2018-09-30T06:56:25.569Z,21.43
2018-09-30T06:58:53.245Z,21.42
2018-09-30T07:01:20.931Z,21.47
2018-09-30T07:03:48.572Z,21.49
2018-09-30T07:06:16.164Z,21.51
2018-09-30T07:08:42.800Z,21.60
2018-09-30T07:11:10.385Z,21.60
2018-09-30T07:13:39.519Z,21.67
2018-09-30T07:16:08.590Z,21.65
2018-09-30T07:18:35.234Z,21.64
2018-09-30T07:21:02.755Z,21.70
2018-09-30T07:23:30.202Z,21.77
2018-09-30T07:25:57.765Z,21.77
2018-09-30T07:28:24.386Z,21.82
2018-09-30T07:30:51.143Z,21.82
2018-09-30T07:33:17.842Z,21.79
2018-09-30T07:35:45.320Z,21.81
2018-09-30T07:38:11.981Z,21.85
2018-09-30T07:40:39.701Z,21.85
2018-09-30T07:43:08.691Z,21.88
2018-09-30T07:45:37.412Z,21.92
2018-09-30T07:48:04.054Z,21.88
2018-09-30T07:50:31.712Z,21.99
2018-09-30T07:53:00.163Z,22.02
2018-09-30T07:55:27.817Z,22.00
2018-09-30T07:57:55.477Z,22.07
2018-09-30T08:00:22.460Z,22.13
2018-09-30T08:02:50.078Z,22.16
2018-09-30T08:05:17.628Z,22.21
2018-09-30T08:07:44.268Z,22.23
2018-09-30T08:10:11.933Z,22.27
2018-09-30T08:12:39.585Z,22.26
2018-09-30T08:15:07.567Z,22.35
2018-09-30T08:17:38.685Z,22.39
2018-09-30T08:20:06.448Z,22.36
2018-09-30T08:22:34.036Z,22.33
2018-09-30T08:25:01.763Z,22.34
2018-09-30T08:27:29.264Z,22.36
2018-09-30T08:29:56.897Z,22.39
2018-09-30T08:32:24.447Z,22.36
2018-09-30T08:34:51.121Z,22.35
2018-09-30T08:37:24.521Z,22.31
2018-09-30T08:39:52.075Z,22.28
2018-09-30T08:42:19.676Z,22.21
2018-09-30T08:44:47.364Z,22.24
2018-09-30T08:47:15.056Z,22.27
2018-09-30T08:49:41.620Z,22.26
2018-09-30T08:52:08.309Z,22.25
2018-09-30T08:54:36.606Z,22.29
2018-09-30T08:57:03.240Z,22.26
2018-09-30T08:59:30.945Z,22.31
2018-09-30T09:01:57.614Z,22.28
2018-09-30T09:04:24.313Z,22.31
2018-09-30T09:06:51.780Z,22.29
2018-09-30T09:09:19.312Z,22.31
2018-09-30T09:11:46.957Z,22.31
2018-09-30T09:14:13.605Z,22.27
2018-09-30T09:16:41.319Z,22.29
2018-09-30T09:19:08.028Z,22.29
2018-09-30T09:21:36.708Z,22.36
2018-09-30T09:24:04.425Z,22.34
2018-09-30T09:26:32.048Z,22.36
2018-09-30T09:29:00.769Z,22.35
2018-09-30T09:31:28.310Z,22.37
2018-09-30T09:33:55.965Z,22.38
2018-09-30T09:36:23.472Z,22.40
2018-09-30T09:38:51.058Z,22.41
2018-09-30T09:41:18.637Z,22.43
2018-09-30T09:43:45.363Z,22.35
2018-09-30T09:46:12.829Z,22.40
2018-09-30T09:48:39.697Z,22.40
2018-09-30T09:51:07.094Z,22.41
2018-09-30T09:53:33.791Z,22.43
2018-09-30T09:56:00.785Z,22.45
2018-09-30T09:58:27.444Z,22.47
2018-09-30T10:00:54.153Z,22.46
2018-09-30T10:03:20.831Z,22.44
2018-09-30T10:05:47.507Z,22.46
2018-09-30T10:08:15.242Z,22.46
2018-09-30T10:10:41.918Z,22.41
2018-09-30T10:13:09.032Z,22.43
2018-09-30T10:15:36.782Z,22.49
2018-09-30T10:18:03.480Z,22.47
2018-09-30T10:20:30.825Z,22.59
2018-09-30T10:22:57.492Z,22.67
2018-09-30T10:25:24.171Z,22.69
2018-09-30T10:27:50.831Z,22.70
2018-09-30T10:30:17.520Z,22.69
2018-09-30T10:32:44.185Z,22.74
2018-09-30T10:35:10.833Z,22.70
2018-09-30T10:37:37.504Z,22.71
2018-09-30T10:40:05.178Z,22.72
2018-09-30T10:42:31.826Z,22.68
2018-09-30T10:44:58.470Z,22.68
2018-09-30T10:47:25.140Z,22.65
2018-09-30T10:49:51.885Z,22.69
2018-09-30T10:52:18.521Z,22.70
2018-09-30T10:54:46.341Z,22.68
2018-09-30T10:57:13.920Z,22.69
2018-09-30T10:59:40.642Z,22.71
2018-09-30T11:02:07.309Z,22.66
2018-09-30T11:04:34.824Z,22.66
2018-09-30T11:07:01.719Z,22.70
2018-09-30T11:09:30.098Z,22.71
2018-09-30T11:11:58.127Z,22.72
2018-09-30T11:14:25.949Z,22.70
2018-09-30T11:17:00.565Z,22.71
2018-09-30T11:19:30.103Z,22.63
2018-09-30T11:21:56.783Z,22.69
2018-09-30T11:24:23.458Z,22.69
2018-09-30T11:26:51.532Z,22.71
2018-09-30T11:29:18.234Z,22.70
2018-09-30T11:31:45.925Z,22.68
2018-09-30T11:34:13.569Z,22.67
2018-09-30T11:36:41.102Z,22.72
2018-09-30T11:39:08.632Z,22.71
2018-09-30T11:41:35.350Z,22.70
2018-09-30T11:44:02.873Z,22.73
2018-09-30T11:46:30.464Z,22.71
2018-09-30T11:48:57.141Z,22.72
2018-09-30T11:51:24.803Z,22.74
2018-09-30T11:53:51.461Z,22.69
2018-09-30T11:56:18.947Z,22.73
2018-09-30T11:58:45.661Z,22.70
2018-09-30T12:01:12.885Z,22.75
2018-09-30T12:03:40.341Z,22.72
2018-09-30T12:06:07.818Z,22.69
2018-09-30T12:08:34.501Z,22.74
2018-09-30T12:11:01.169Z,22.72
2018-09-30T12:13:27.873Z,22.76
2018-09-30T12:15:54.538Z,22.77
2018-09-30T12:18:22.233Z,22.80
2018-09-30T12:20:49.028Z,22.75
2018-09-30T12:23:15.844Z,22.74
2018-09-30T12:25:42.590Z,22.74
2018-09-30T12:28:10.225Z,22.74
2018-09-30T12:30:37.678Z,22.72
2018-09-30T12:33:05.189Z,22.71
2018-09-30T12:35:31.901Z,22.72
2018-09-30T12:38:00.121Z,22.75
2018-09-30T12:40:26.769Z,22.76
2018-09-30T12:42:54.449Z,22.74
2018-09-30T12:45:21.122Z,22.73
2018-09-30T12:47:47.899Z,22.76
2018-09-30T12:50:14.565Z,22.75
2018-09-30T12:52:42.216Z,22.77
2018-09-30T12:55:09.833Z,22.75
2018-09-30T12:57:38.100Z,22.73
2018-09-30T13:00:07.443Z,22.76
2018-09-30T13:02:35.053Z,22.74
2018-09-30T13:05:02.738Z,22.72
2018-09-30T13:07:30.659Z,22.73
2018-09-30T13:09:58.293Z,22.72
2018-09-30T13:12:25.893Z,22.73
2018-09-30T13:14:53.581Z,22.72
2018-09-30T13:17:23.854Z,22.77
2018-09-30T13:19:51.465Z,22.74
2018-09-30T13:22:19.815Z,22.76
2018-09-30T13:24:46.455Z,22.78
2018-09-30T13:27:13.260Z,22.75
2018-09-30T13:29:39.934Z,22.72
2018-09-30T13:32:07.506Z,22.76
2018-09-30T13:34:34.189Z,22.75
2018-09-30T13:37:00.908Z,22.74
2018-09-30T13:39:27.577Z,22.75
2018-09-30T13:41:55.181Z,22.73
2018-09-30T13:44:21.884Z,22.75
2018-09-30T13:46:48.545Z,22.75
2018-09-30T13:49:15.197Z,22.79
2018-09-30T13:51:42.046Z,22.76
2018-09-30T13:54:08.741Z,22.71
2018-09-30T13:56:36.094Z,22.74
2018-09-30T13:59:02.827Z,22.83
2018-09-30T14:01:30.193Z,22.88
2018-09-30T14:03:56.869Z,22.90
2018-09-30T14:06:23.536Z,22.92
2018-09-30T14:08:50.213Z,22.95
2018-09-30T14:11:16.928Z,22.92
2018-09-30T14:14:00.088Z,22.94
2018-09-30T14:16:27.733Z,22.88
2018-09-30T14:18:54.435Z,22.87
2018-09-30T14:21:21.130Z,22.87
2018-09-30T14:23:47.797Z,22.91
2018-09-30T14:26:15.521Z,22.90
2018-09-30T14:28:43.152Z,22.89
2018-09-30T14:31:10.906Z,22.87
2018-09-30T14:33:38.870Z,22.86
2018-09-30T14:36:07.243Z,22.85
2018-09-30T14:38:33.921Z,22.86
2018-09-30T14:41:00.889Z,22.83
2018-09-30T14:43:27.597Z,22.86
2018-09-30T14:45:54.249Z,22.87
2018-09-30T14:48:21.067Z,22.82
2018-09-30T14:50:48.545Z,22.82
2018-09-30T14:53:15.233Z,22.81
2018-09-30T14:55:42.476Z,22.77
2018-09-30T14:58:16.215Z,22.79
2018-09-30T15:00:43.837Z,22.75
2018-09-30T15:03:10.477Z,22.77
2018-09-30T15:05:39.140Z,22.81
2018-09-30T15:08:07.933Z,22.82
2018-09-30T15:10:36.937Z,22.78
2018-09-30T15:13:03.579Z,22.77
2018-09-30T15:15:31.220Z,22.75
2018-09-30T15:17:57.933Z,22.78
2018-09-30T15:20:25.509Z,22.75
2018-09-30T15:22:53.164Z,22.70
2018-09-30T15:25:19.808Z,22.71
2018-09-30T15:27:47.436Z,22.72
2018-09-30T15:30:14.125Z,22.68
2018-09-30T15:32:41.648Z,22.69
2018-09-30T15:35:10.364Z,22.67
2018-09-30T15:37:38.744Z,22.69
2018-09-30T15:40:06.588Z,22.69
2018-09-30T15:42:34.283Z,22.68
2018-09-30T15:45:01.916Z,22.68
2018-09-30T15:47:30.193Z,22.68
2018-09-30T15:49:57.184Z,22.75
2018-09-30T15:52:23.953Z,22.66
2018-09-30T15:54:51.691Z,22.66
2018-09-30T15:57:19.178Z,22.62
2018-09-30T15:59:46.837Z,22.64
2018-09-30T16:02:14.404Z,22.62
2018-09-30T16:04:41.926Z,22.64
2018-09-30T16:07:09.544Z,22.66
2018-09-30T16:09:37.020Z,22.64
2018-09-30T16:12:04.521Z,22.65
2018-09-30T16:14:31.152Z,22.65
2018-09-30T16:16:57.805Z,22.63
2018-09-30T16:19:24.444Z,22.61
2018-09-30T16:21:51.099Z,22.58
2018-09-30T16:24:17.788Z,22.59
2018-09-30T16:26:44.445Z,22.65
2018-09-30T16:29:11.104Z,22.61
2018-09-30T16:31:37.760Z,22.63
2018-09-30T16:34:04.393Z,22.62
2018-09-30T16:36:31.042Z,22.59
2018-09-30T16:38:57.681Z,22.58
2018-09-30T16:41:24.389Z,22.60
2018-09-30T16:43:51.891Z,22.52
2018-09-30T16:46:18.545Z,22.51
2018-09-30T16:48:46.299Z,22.57
2018-09-30T16:51:12.944Z,22.60
2018-09-30T16:53:39.593Z,22.58
2018-09-30T16:56:07.008Z,22.62
2018-09-30T16:58:33.664Z,22.61
2018-09-30T17:01:01.400Z,22.64
2018-09-30T17:03:28.052Z,22.63
2018-09-30T17:05:54.789Z,22.59
2018-09-30T17:08:22.484Z,22.59
2018-09-30T17:10:50.144Z,22.59
2018-09-30T17:13:17.729Z,22.55
2018-09-30T17:15:44.376Z,22.57
2018-09-30T17:18:11.024Z,22.57
2018-09-30T17:20:37.683Z,22.54
2018-09-30T17:23:04.336Z,22.57
2018-09-30T17:25:30.976Z,22.63
2018-09-30T17:27:57.952Z,22.57
2018-09-30T17:30:24.617Z,22.56
2018-09-30T17:32:51.278Z,22.56
2018-09-30T17:35:17.953Z,22.63
2018-09-30T17:37:44.695Z,22.60
2018-09-30T17:40:11.386Z,22.60
2018-09-30T17:42:39.052Z,22.54
2018-09-30T17:45:06.509Z,22.49
2018-09-30T17:47:34.062Z,22.54
2018-09-30T17:50:01.945Z,22.52
2018-09-30T17:52:30.403Z,22.44
2018-09-30T17:54:57.048Z,22.48
2018-09-30T17:57:24.496Z,22.50
2018-09-30T17:59:52.196Z,22.56
2018-09-30T18:02:18.893Z,22.48
2018-09-30T18:04:45.533Z,22.43
2018-09-30T18:07:13.228Z,22.42
2018-09-30T18:09:40.658Z,22.42
2018-09-30T18:12:07.342Z,22.39
2018-09-30T18:14:33.984Z,22.38
2018-09-30T18:17:02.437Z,22.35
2018-09-30T18:19:30.600Z,22.37
2018-09-30T18:21:58.312Z,22.36
2018-09-30T18:24:25.970Z,22.35
2018-09-30T18:26:52.676Z,22.35
2018-09-30T18:29:19.364Z,22.36
2018-09-30T18:31:46.988Z,22.34
2018-09-30T18:34:14.464Z,22.35
2018-09-30T18:36:41.114Z,22.36
2018-09-30T18:39:08.068Z,22.40
2018-09-30T18:41:34.750Z,22.40
2018-09-30T18:44:02.045Z,22.41
2018-09-30T18:46:28.738Z,22.46
2018-09-30T18:48:55.413Z,22.48
2018-09-30T18:51:22.058Z,22.47
2018-09-30T18:53:48.741Z,22.35
2018-09-30T18:56:16.439Z,22.26
2018-09-30T18:58:44.116Z,22.28
2018-09-30T19:01:10.865Z,22.29
2018-09-30T19:03:37.946Z,22.28
2018-09-30T19:06:06.597Z,22.30
2018-09-30T19:08:34.197Z,22.26
2018-09-30T19:11:02.241Z,22.26
2018-09-30T19:13:29.893Z,22.31
2018-09-30T19:15:56.589Z,22.26
2018-09-30T19:18:23.250Z,22.29
2018-09-30T19:20:49.917Z,22.33
2018-09-30T19:23:16.562Z,22.29
2018-09-30T19:25:43.196Z,22.26
2018-09-30T19:28:09.836Z,22.27
2018-09-30T19:30:37.797Z,22.27
2018-09-30T19:33:06.018Z,22.31
2018-09-30T19:35:33.552Z,22.28
2018-09-30T19:38:01.251Z,22.29
2018-09-30T19:40:28.728Z,22.26
2018-09-30T19:42:56.417Z,22.25
2018-09-30T19:45:23.862Z,22.27
2018-09-30T19:47:51.381Z,22.28
2018-09-30T19:50:18.022Z,22.23
2018-09-30T19:52:44.725Z,22.21
2018-09-30T19:55:12.355Z,22.21
2018-09-30T19:57:40.049Z,22.23
2018-09-30T20:00:07.712Z,22.21
2018-09-30T20:02:34.396Z,22.22
2018-09-30T20:05:01.206Z,22.26
2018-09-30T20:07:28.732Z,22.26
2018-09-30T20:09:56.237Z,22.25
2018-09-30T20:12:23.709Z,22.26
2018-09-30T20:14:50.344Z,22.21
2018-09-30T20:17:16.981Z,22.22
2018-09-30T20:19:43.624Z,22.17
2018-09-30T20:22:11.212Z,22.14
2018-09-30T20:24:37.857Z,22.14
2018-09-30T20:27:06.839Z,22.14
2018-09-30T20:29:33.745Z,22.12
2018-09-30T20:32:01.304Z,22.15
2018-09-30T20:34:29.773Z,22.18
2018-09-30T20:36:56.490Z,22.19
2018-09-30T20:39:23.996Z,22.21
2018-09-30T20:41:50.662Z,22.22
2018-09-30T20:44:17.361Z,22.25
2018-09-30T20:46:44.810Z,22.20
2018-09-30T20:49:11.512Z,22.18
2018-09-30T20:51:38.184Z,22.19
2018-09-30T20:54:06.481Z,22.15
2018-09-30T20:56:33.948Z,22.19
2018-09-30T20:59:01.134Z,22.19
2018-09-30T21:01:27.896Z,22.16
2018-09-30T21:03:55.414Z,22.14
2018-09-30T21:06:23.746Z,22.19
2018-09-30T21:08:50.435Z,22.17
2018-09-30T21:11:18.185Z,22.19
2018-09-30T21:13:45.829Z,22.21
2018-09-30T21:16:14.068Z,22.20
2018-09-30T21:18:42.067Z,22.19
2018-09-30T21:21:09.616Z,22.20
2018-09-30T21:23:36.901Z,22.18
2018-09-30T21:26:04.467Z,22.17
2018-09-30T21:28:31.945Z,22.16
2018-09-30T21:31:00.348Z,22.09
2018-09-30T21:33:27.019Z,22.12
2018-09-30T21:35:54.514Z,22.12
2018-09-30T21:38:21.195Z,22.13
2018-09-30T21:40:48.740Z,22.13
2018-09-30T21:43:17.413Z,22.13
2018-09-30T21:45:44.841Z,22.09
2018-09-30T21:48:13.417Z,22.08
2018-09-30T21:50:41.008Z,22.13
2018-09-30T21:53:08.596Z,22.10
2018-09-30T21:55:36.284Z,22.12
2018-09-30T21:58:02.924Z,22.12
2018-09-30T22:00:36.372Z,22.10
2018-09-30T22:03:03.809Z,21.98
2018-09-30T22:05:31.408Z,22.01
2018-09-30T22:07:58.152Z,22.05
2018-09-30T22:10:25.617Z,22.10
2018-09-30T22:12:52.251Z,22.02
2018-09-30T22:15:19.873Z,22.05
2018-09-30T22:17:46.519Z,22.07
2018-09-30T22:20:13.949Z,22.09
2018-09-30T22:22:41.549Z,22.10
2018-09-30T22:25:08.236Z,22.11
2018-09-30T22:27:35.928Z,22.06
2018-09-30T22:30:04.049Z,22.02
2018-09-30T22:32:32.436Z,22.04
2018-09-30T22:35:01.377Z,22.03
2018-09-30T22:37:28.833Z,22.02
2018-09-30T22:39:56.513Z,22.03
2018-09-30T22:42:24.216Z,22.04
2018-09-30T22:44:51.790Z,22.02
2018-09-30T22:47:19.544Z,21.96
2018-09-30T22:49:47.121Z,22.00
2018-09-30T22:52:14.805Z,21.98
2018-09-30T22:54:42.265Z,21.95
2018-09-30T22:57:09.967Z,21.95
2018-09-30T22:59:37.640Z,21.93
2018-09-30T23:02:04.327Z,21.98
2018-09-30T23:04:32.281Z,22.02
2018-09-30T23:06:58.936Z,22.00
2018-09-30T23:09:26.541Z,22.01
2018-09-30T23:11:53.329Z,22.02
2018-09-30T23:14:19.977Z,21.99
2018-09-30T23:16:46.629Z,22.00
2018-09-30T23:19:13.264Z,21.97
2018-09-30T23:21:40.753Z,21.96
2018-09-30T23:24:08.192Z,21.94
2018-09-30T23:26:34.830Z,21.94
2018-09-30T23:29:01.481Z,21.94
2018-09-30T23:31:28.982Z,21.96
2018-09-30T23:33:56.633Z,21.97
2018-09-30T23:36:23.272Z,21.97
2018-09-30T23:38:50.849Z,21.95
2018-09-30T23:41:17.500Z,21.92
2018-09-30T23:43:44.137Z,21.89
2018-09-30T23:46:10.777Z,21.86
2018-09-30T23:48:37.957Z,21.87
2018-09-30T23:51:04.755Z,21.88
2018-09-30T23:53:31.400Z,21.92
2018-09-30T23:55:59.781Z,21.91
2018-09-30T23:58:26.435Z,21.91
